sensor_id;sensor_type;location;lat;lon;timestamp;P1;durP1;ratioP1;P2;durP2;ratioP2
75429;SDS011;64127;51.488;5.462;2023-03-04T00:00:02;10.93;;;3.87;;
75429;SDS011;64127;51.488;5.462;2023-03-04T00:02:36;12.27;;;3.67;;
75429;SDS011;64127;51.488;5.462;2023-03-04T00:05:08;9.40;;;3.43;;
75429;SDS011;64127;51.488;5.462;2023-03-04T00:07:40;14.07;;;3.83;;
75429;SDS011;64127;51.488;5.462;2023-03-04T00:10:12;12.00;;;3.50;;
75429;SDS011;64127;51.488;5.462;2023-03-04T00:12:44;8.37;;;2.90;;
75429;SDS011;64127;51.488;5.462;2023-03-04T00:15:16;11.57;;;3.20;;
75429;SDS011;64127;51.488;5.462;2023-03-04T00:17:48;11.80;;;3.30;;
75429;SDS011;64127;51.488;5.462;2023-03-04T00:20:20;12.27;;;3.40;;
75429;SDS011;64127;51.488;5.462;2023-03-04T00:22:52;11.73;;;3.30;;
75429;SDS011;64127;51.488;5.462;2023-03-04T00:25:24;10.47;;;3.60;;
75429;SDS011;64127;51.488;5.462;2023-03-04T00:27:56;8.83;;;3.10;;
75429;SDS011;64127;51.488;5.462;2023-03-04T00:30:28;9.33;;;3.20;;
75429;SDS011;64127;51.488;5.462;2023-03-04T00:33:00;13.23;;;3.33;;
75429;SDS011;64127;51.488;5.462;2023-03-04T00:35:32;10.53;;;3.53;;
75429;SDS011;64127;51.488;5.462;2023-03-04T00:38:04;11.93;;;2.97;;
75429;SDS011;64127;51.488;5.462;2023-03-04T00:40:36;9.07;;;3.30;;
75429;SDS011;64127;51.488;5.462;2023-03-04T00:43:08;7.63;;;3.20;;
75429;SDS011;64127;51.488;5.462;2023-03-04T00:45:40;10.63;;;3.57;;
75429;SDS011;64127;51.488;5.462;2023-03-04T00:48:12;10.17;;;3.20;;
75429;SDS011;64127;51.488;5.462;2023-03-04T00:50:46;11.43;;;3.40;;
75429;SDS011;64127;51.488;5.462;2023-03-04T00:53:19;12.87;;;3.53;;
75429;SDS011;64127;51.488;5.462;2023-03-04T00:55:54;14.93;;;3.70;;
75429;SDS011;64127;51.488;5.462;2023-03-04T00:58:26;13.57;;;4.07;;
75429;SDS011;64127;51.488;5.462;2023-03-04T01:00:58;11.53;;;3.40;;
75429;SDS011;64127;51.488;5.462;2023-03-04T01:03:30;13.87;;;3.40;;
75429;SDS011;64127;51.488;5.462;2023-03-04T01:06:03;12.77;;;4.07;;
75429;SDS011;64127;51.488;5.462;2023-03-04T01:08:36;10.70;;;3.53;;
75429;SDS011;64127;51.488;5.462;2023-03-04T01:11:08;12.57;;;3.47;;
75429;SDS011;64127;51.488;5.462;2023-03-04T01:13:41;13.13;;;3.50;;
75429;SDS011;64127;51.488;5.462;2023-03-04T01:16:13;11.07;;;3.27;;
75429;SDS011;64127;51.488;5.462;2023-03-04T01:18:45;12.13;;;3.10;;
75429;SDS011;64127;51.488;5.462;2023-03-04T01:21:17;10.23;;;3.00;;
75429;SDS011;64127;51.488;5.462;2023-03-04T01:23:50;12.70;;;3.37;;
75429;SDS011;64127;51.488;5.462;2023-03-04T01:26:22;14.27;;;3.13;;
75429;SDS011;64127;51.488;5.462;2023-03-04T01:28:54;14.37;;;3.30;;
75429;SDS011;64127;51.488;5.462;2023-03-04T01:31:25;10.37;;;3.03;;
75429;SDS011;64127;51.488;5.462;2023-03-04T01:33:57;8.47;;;2.87;;
75429;SDS011;64127;51.488;5.462;2023-03-04T01:36:29;12.97;;;3.37;;
75429;SDS011;64127;51.488;5.462;2023-03-04T01:39:02;12.97;;;3.83;;
75429;SDS011;64127;51.488;5.462;2023-03-04T01:41:34;9.57;;;3.30;;
75429;SDS011;64127;51.488;5.462;2023-03-04T01:44:08;12.07;;;3.70;;
75429;SDS011;64127;51.488;5.462;2023-03-04T01:46:43;8.90;;;2.97;;
75429;SDS011;64127;51.488;5.462;2023-03-04T01:49:25;8.67;;;3.10;;
75429;SDS011;64127;51.488;5.462;2023-03-04T01:51:57;12.20;;;3.60;;
75429;SDS011;64127;51.488;5.462;2023-03-04T01:54:29;13.13;;;3.27;;
75429;SDS011;64127;51.488;5.462;2023-03-04T01:57:01;11.40;;;3.33;;
75429;SDS011;64127;51.488;5.462;2023-03-04T02:00:09;10.13;;;2.87;;
75429;SDS011;64127;51.488;5.462;2023-03-04T02:02:56;12.23;;;3.30;;
75429;SDS011;64127;51.488;5.462;2023-03-04T02:05:39;12.67;;;3.40;;
75429;SDS011;64127;51.488;5.462;2023-03-04T02:08:16;9.20;;;3.30;;
75429;SDS011;64127;51.488;5.462;2023-03-04T02:10:52;9.80;;;2.80;;
75429;SDS011;64127;51.488;5.462;2023-03-04T02:13:25;9.33;;;2.73;;
75429;SDS011;64127;51.488;5.462;2023-03-04T02:15:57;9.43;;;2.97;;
75429;SDS011;64127;51.488;5.462;2023-03-04T02:18:29;12.13;;;3.30;;
75429;SDS011;64127;51.488;5.462;2023-03-04T02:26:50;8.27;;;3.07;;
75429;SDS011;64127;51.488;5.462;2023-03-04T02:29:22;12.27;;;3.27;;
75429;SDS011;64127;51.488;5.462;2023-03-04T02:31:54;10.53;;;3.53;;
75429;SDS011;64127;51.488;5.462;2023-03-04T02:34:27;8.20;;;2.93;;
75429;SDS011;64127;51.488;5.462;2023-03-04T02:37:03;7.43;;;2.57;;
75429;SDS011;64127;51.488;5.462;2023-03-04T02:39:41;10.80;;;3.03;;
75429;SDS011;64127;51.488;5.462;2023-03-04T02:42:16;12.03;;;2.87;;
75429;SDS011;64127;51.488;5.462;2023-03-04T02:44:48;12.53;;;2.90;;
75429;SDS011;64127;51.488;5.462;2023-03-04T02:47:31;12.20;;;3.00;;
75429;SDS011;64127;51.488;5.462;2023-03-04T02:50:03;11.63;;;3.37;;
75429;SDS011;64127;51.488;5.462;2023-03-04T02:52:36;7.40;;;3.03;;
75429;SDS011;64127;51.488;5.462;2023-03-04T02:55:08;11.23;;;2.90;;
75429;SDS011;64127;51.488;5.462;2023-03-04T02:57:40;11.67;;;3.00;;
75429;SDS011;64127;51.488;5.462;2023-03-04T03:00:12;11.30;;;3.03;;
75429;SDS011;64127;51.488;5.462;2023-03-04T03:02:44;8.07;;;2.80;;
75429;SDS011;64127;51.488;5.462;2023-03-04T03:05:17;11.43;;;3.07;;
75429;SDS011;64127;51.488;5.462;2023-03-04T03:07:49;9.03;;;2.40;;
75429;SDS011;64127;51.488;5.462;2023-03-04T03:10:21;9.17;;;2.97;;
75429;SDS011;64127;51.488;5.462;2023-03-04T03:12:54;9.03;;;2.60;;
75429;SDS011;64127;51.488;5.462;2023-03-04T03:15:26;7.43;;;2.13;;
75429;SDS011;64127;51.488;5.462;2023-03-04T03:17:58;8.07;;;2.67;;
75429;SDS011;64127;51.488;5.462;2023-03-04T03:20:30;10.20;;;2.97;;
75429;SDS011;64127;51.488;5.462;2023-03-04T03:23:02;9.37;;;2.93;;
75429;SDS011;64127;51.488;5.462;2023-03-04T03:25:35;8.23;;;2.90;;
75429;SDS011;64127;51.488;5.462;2023-03-04T03:28:08;9.40;;;2.37;;
75429;SDS011;64127;51.488;5.462;2023-03-04T03:30:40;11.07;;;2.70;;
75429;SDS011;64127;51.488;5.462;2023-03-04T03:33:11;9.40;;;3.13;;
75429;SDS011;64127;51.488;5.462;2023-03-04T03:35:43;8.23;;;2.33;;
75429;SDS011;64127;51.488;5.462;2023-03-04T03:38:15;8.43;;;2.70;;
75429;SDS011;64127;51.488;5.462;2023-03-04T03:40:47;8.27;;;2.50;;
75429;SDS011;64127;51.488;5.462;2023-03-04T03:43:20;8.10;;;2.57;;
75429;SDS011;64127;51.488;5.462;2023-03-04T03:45:52;8.00;;;2.77;;
75429;SDS011;64127;51.488;5.462;2023-03-04T03:48:24;8.53;;;2.20;;
75429;SDS011;64127;51.488;5.462;2023-03-04T03:50:56;8.00;;;2.80;;
75429;SDS011;64127;51.488;5.462;2023-03-04T03:53:28;8.67;;;2.67;;
75429;SDS011;64127;51.488;5.462;2023-03-04T03:56:00;7.03;;;2.30;;
75429;SDS011;64127;51.488;5.462;2023-03-04T03:58:32;8.10;;;2.67;;
75429;SDS011;64127;51.488;5.462;2023-03-04T04:01:04;8.73;;;2.33;;
75429;SDS011;64127;51.488;5.462;2023-03-04T04:03:36;8.77;;;2.60;;
75429;SDS011;64127;51.488;5.462;2023-03-04T04:06:08;8.73;;;2.40;;
75429;SDS011;64127;51.488;5.462;2023-03-04T04:08:40;7.87;;;2.60;;
75429;SDS011;64127;51.488;5.462;2023-03-04T04:11:12;9.40;;;2.53;;
75429;SDS011;64127;51.488;5.462;2023-03-04T04:13:44;10.30;;;2.60;;
75429;SDS011;64127;51.488;5.462;2023-03-04T04:16:16;6.23;;;2.47;;
75429;SDS011;64127;51.488;5.462;2023-03-04T04:18:48;11.03;;;2.83;;
75429;SDS011;64127;51.488;5.462;2023-03-04T04:21:20;7.97;;;2.30;;
75429;SDS011;64127;51.488;5.462;2023-03-04T04:23:52;9.33;;;2.70;;
75429;SDS011;64127;51.488;5.462;2023-03-04T04:26:24;8.23;;;2.50;;
75429;SDS011;64127;51.488;5.462;2023-03-04T04:28:56;8.93;;;2.77;;
75429;SDS011;64127;51.488;5.462;2023-03-04T04:31:28;6.93;;;2.70;;
75429;SDS011;64127;51.488;5.462;2023-03-04T04:34:00;11.40;;;3.20;;
75429;SDS011;64127;51.488;5.462;2023-03-04T04:36:32;7.40;;;2.40;;
75429;SDS011;64127;51.488;5.462;2023-03-04T04:39:04;9.93;;;2.37;;
75429;SDS011;64127;51.488;5.462;2023-03-04T04:41:37;10.70;;;2.80;;
75429;SDS011;64127;51.488;5.462;2023-03-04T04:44:12;8.77;;;2.60;;
75429;SDS011;64127;51.488;5.462;2023-03-04T04:46:45;7.00;;;2.40;;
75429;SDS011;64127;51.488;5.462;2023-03-04T04:49:17;5.50;;;2.07;;
75429;SDS011;64127;51.488;5.462;2023-03-04T04:51:49;9.10;;;2.90;;
75429;SDS011;64127;51.488;5.462;2023-03-04T04:54:21;8.20;;;2.30;;
75429;SDS011;64127;51.488;5.462;2023-03-04T04:56:53;9.70;;;2.50;;
75429;SDS011;64127;51.488;5.462;2023-03-04T04:59:25;7.83;;;2.60;;
75429;SDS011;64127;51.488;5.462;2023-03-04T05:01:58;12.13;;;2.83;;
75429;SDS011;64127;51.488;5.462;2023-03-04T05:04:30;9.83;;;2.53;;
75429;SDS011;64127;51.488;5.462;2023-03-04T05:07:02;10.80;;;2.33;;
75429;SDS011;64127;51.488;5.462;2023-03-04T05:09:34;9.10;;;2.20;;
75429;SDS011;64127;51.488;5.462;2023-03-04T05:12:06;6.80;;;2.33;;
75429;SDS011;64127;51.488;5.462;2023-03-04T05:14:38;4.33;;;1.90;;
75429;SDS011;64127;51.488;5.462;2023-03-04T05:17:10;7.50;;;2.10;;
75429;SDS011;64127;51.488;5.462;2023-03-04T05:19:42;7.83;;;2.40;;
75429;SDS011;64127;51.488;5.462;2023-03-04T05:22:14;8.10;;;2.60;;
75429;SDS011;64127;51.488;5.462;2023-03-04T05:24:46;9.23;;;2.70;;
75429;SDS011;64127;51.488;5.462;2023-03-04T05:27:18;10.33;;;2.60;;
75429;SDS011;64127;51.488;5.462;2023-03-04T05:29:50;11.20;;;2.80;;
75429;SDS011;64127;51.488;5.462;2023-03-04T05:32:23;7.90;;;2.77;;
75429;SDS011;64127;51.488;5.462;2023-03-04T05:34:55;9.37;;;2.43;;
75429;SDS011;64127;51.488;5.462;2023-03-04T05:37:27;10.47;;;2.80;;
75429;SDS011;64127;51.488;5.462;2023-03-04T05:39:59;9.97;;;2.60;;
75429;SDS011;64127;51.488;5.462;2023-03-04T05:42:31;8.63;;;2.50;;
75429;SDS011;64127;51.488;5.462;2023-03-04T05:45:03;11.83;;;2.77;;
75429;SDS011;64127;51.488;5.462;2023-03-04T05:47:37;8.13;;;2.60;;
75429;SDS011;64127;51.488;5.462;2023-03-04T05:50:09;9.33;;;3.00;;
75429;SDS011;64127;51.488;5.462;2023-03-04T05:52:42;8.33;;;2.50;;
75429;SDS011;64127;51.488;5.462;2023-03-04T05:55:14;12.20;;;2.67;;
75429;SDS011;64127;51.488;5.462;2023-03-04T05:57:47;11.33;;;2.57;;
75429;SDS011;64127;51.488;5.462;2023-03-04T06:00:19;9.17;;;2.40;;
75429;SDS011;64127;51.488;5.462;2023-03-04T06:02:52;7.23;;;2.47;;
75429;SDS011;64127;51.488;5.462;2023-03-04T06:05:24;8.70;;;2.67;;
75429;SDS011;64127;51.488;5.462;2023-03-04T06:07:56;8.30;;;2.20;;
75429;SDS011;64127;51.488;5.462;2023-03-04T06:10:28;6.20;;;2.27;;
75429;SDS011;64127;51.488;5.462;2023-03-04T06:13:00;8.30;;;2.50;;
75429;SDS011;64127;51.488;5.462;2023-03-04T06:15:32;7.20;;;2.23;;
75429;SDS011;64127;51.488;5.462;2023-03-04T06:18:05;7.67;;;2.37;;
75429;SDS011;64127;51.488;5.462;2023-03-04T06:20:38;9.23;;;1.97;;
75429;SDS011;64127;51.488;5.462;2023-03-04T06:23:10;4.60;;;1.83;;
75429;SDS011;64127;51.488;5.462;2023-03-04T06:25:42;6.77;;;1.90;;
75429;SDS011;64127;51.488;5.462;2023-03-04T06:28:14;8.88;;;2.50;;
75429;SDS011;64127;51.488;5.462;2023-03-04T06:30:46;6.53;;;2.10;;
75429;SDS011;64127;51.488;5.462;2023-03-04T06:33:18;5.77;;;2.27;;
75429;SDS011;64127;51.488;5.462;2023-03-04T06:35:54;6.73;;;2.20;;
75429;SDS011;64127;51.488;5.462;2023-03-04T06:38:27;8.47;;;2.40;;
75429;SDS011;64127;51.488;5.462;2023-03-04T06:41:09;7.17;;;1.97;;
75429;SDS011;64127;51.488;5.462;2023-03-04T06:43:43;8.50;;;2.47;;
75429;SDS011;64127;51.488;5.462;2023-03-04T06:46:15;4.90;;;2.33;;
75429;SDS011;64127;51.488;5.462;2023-03-04T06:48:47;6.60;;;2.00;;
75429;SDS011;64127;51.488;5.462;2023-03-04T06:51:19;8.60;;;2.40;;
75429;SDS011;64127;51.488;5.462;2023-03-04T06:53:51;6.87;;;2.40;;
75429;SDS011;64127;51.488;5.462;2023-03-04T06:56:23;6.27;;;2.03;;
75429;SDS011;64127;51.488;5.462;2023-03-04T06:58:55;4.97;;;1.87;;
75429;SDS011;64127;51.488;5.462;2023-03-04T07:01:28;8.30;;;2.30;;
75429;SDS011;64127;51.488;5.462;2023-03-04T07:04:00;5.70;;;2.00;;
75429;SDS011;64127;51.488;5.462;2023-03-04T07:06:33;6.20;;;2.40;;
75429;SDS011;64127;51.488;5.462;2023-03-04T07:09:05;6.97;;;2.20;;
75429;SDS011;64127;51.488;5.462;2023-03-04T07:11:37;7.07;;;2.00;;
75429;SDS011;64127;51.488;5.462;2023-03-04T07:14:09;6.27;;;2.13;;
75429;SDS011;64127;51.488;5.462;2023-03-04T07:16:42;4.97;;;2.23;;
75429;SDS011;64127;51.488;5.462;2023-03-04T07:19:14;4.97;;;1.90;;
75429;SDS011;64127;51.488;5.462;2023-03-04T07:21:46;5.83;;;2.20;;
75429;SDS011;64127;51.488;5.462;2023-03-04T07:24:18;6.20;;;2.00;;
75429;SDS011;64127;51.488;5.462;2023-03-04T07:26:50;5.63;;;2.00;;
75429;SDS011;64127;51.488;5.462;2023-03-04T07:29:22;5.30;;;2.00;;
75429;SDS011;64127;51.488;5.462;2023-03-04T07:31:54;3.70;;;1.90;;
75429;SDS011;64127;51.488;5.462;2023-03-04T07:34:27;6.90;;;2.50;;
75429;SDS011;64127;51.488;5.462;2023-03-04T07:36:59;4.60;;;1.73;;
75429;SDS011;64127;51.488;5.462;2023-03-04T07:39:31;8.63;;;2.47;;
75429;SDS011;64127;51.488;5.462;2023-03-04T07:42:03;8.20;;;2.50;;
75429;SDS011;64127;51.488;5.462;2023-03-04T07:44:35;6.63;;;2.30;;
75429;SDS011;64127;51.488;5.462;2023-03-04T07:47:07;6.00;;;2.37;;
75429;SDS011;64127;51.488;5.462;2023-03-04T07:49:39;5.10;;;2.17;;
75429;SDS011;64127;51.488;5.462;2023-03-04T07:52:11;5.47;;;2.20;;
75429;SDS011;64127;51.488;5.462;2023-03-04T07:54:44;8.20;;;2.40;;
75429;SDS011;64127;51.488;5.462;2023-03-04T07:57:16;6.23;;;2.40;;
75429;SDS011;64127;51.488;5.462;2023-03-04T07:59:48;6.03;;;2.07;;
75429;SDS011;64127;51.488;5.462;2023-03-04T08:02:20;5.77;;;2.13;;
75429;SDS011;64127;51.488;5.462;2023-03-04T08:04:52;5.80;;;1.87;;
75429;SDS011;64127;51.488;5.462;2023-03-04T08:07:24;6.40;;;2.13;;
75429;SDS011;64127;51.488;5.462;2023-03-04T08:09:56;7.80;;;2.53;;
75429;SDS011;64127;51.488;5.462;2023-03-04T08:12:28;4.93;;;2.20;;
75429;SDS011;64127;51.488;5.462;2023-03-04T08:15:00;10.20;;;2.70;;
75429;SDS011;64127;51.488;5.462;2023-03-04T08:17:33;7.30;;;2.90;;
75429;SDS011;64127;51.488;5.462;2023-03-04T08:20:06;6.07;;;2.80;;
75429;SDS011;64127;51.488;5.462;2023-03-04T08:22:38;7.33;;;2.40;;
75429;SDS011;64127;51.488;5.462;2023-03-04T08:25:10;5.97;;;2.43;;
75429;SDS011;64127;51.488;5.462;2023-03-04T08:27:42;6.77;;;2.60;;
75429;SDS011;64127;51.488;5.462;2023-03-04T08:30:14;6.67;;;2.93;;
75429;SDS011;64127;51.488;5.462;2023-03-04T08:32:47;6.90;;;2.30;;
75429;SDS011;64127;51.488;5.462;2023-03-04T08:35:19;5.97;;;2.20;;
75429;SDS011;64127;51.488;5.462;2023-03-04T08:37:51;8.73;;;2.80;;
75429;SDS011;64127;51.488;5.462;2023-03-04T08:40:23;7.47;;;2.90;;
75429;SDS011;64127;51.488;5.462;2023-03-04T08:42:57;6.57;;;2.67;;
75429;SDS011;64127;51.488;5.462;2023-03-04T08:45:29;7.63;;;2.50;;
75429;SDS011;64127;51.488;5.462;2023-03-04T08:48:01;6.03;;;2.27;;
75429;SDS011;64127;51.488;5.462;2023-03-04T08:50:34;5.23;;;2.43;;
75429;SDS011;64127;51.488;5.462;2023-03-04T08:53:06;5.47;;;2.43;;
75429;SDS011;64127;51.488;5.462;2023-03-04T08:55:39;7.53;;;2.47;;
75429;SDS011;64127;51.488;5.462;2023-03-04T08:58:12;8.23;;;2.60;;
75429;SDS011;64127;51.488;5.462;2023-03-04T09:00:45;7.00;;;2.30;;
75429;SDS011;64127;51.488;5.462;2023-03-04T09:03:19;5.77;;;2.40;;
75429;SDS011;64127;51.488;5.462;2023-03-04T09:05:51;11.53;;;2.60;;
75429;SDS011;64127;51.488;5.462;2023-03-04T09:08:23;6.87;;;2.23;;
75429;SDS011;64127;51.488;5.462;2023-03-04T09:10:55;3.73;;;1.77;;
75429;SDS011;64127;51.488;5.462;2023-03-04T09:13:28;4.50;;;2.00;;
75429;SDS011;64127;51.488;5.462;2023-03-04T09:16:02;3.97;;;2.00;;
75429;SDS011;64127;51.488;5.462;2023-03-04T09:18:40;5.30;;;2.10;;
75429;SDS011;64127;51.488;5.462;2023-03-04T09:21:13;7.40;;;2.33;;
75429;SDS011;64127;51.488;5.462;2023-03-04T09:23:46;7.23;;;2.30;;
75429;SDS011;64127;51.488;5.462;2023-03-04T09:28:59;5.63;;;2.27;;
75429;SDS011;64127;51.488;5.462;2023-03-04T09:31:33;3.20;;;2.00;;
75429;SDS011;64127;51.488;5.462;2023-03-04T09:34:05;6.70;;;2.40;;
75429;SDS011;64127;51.488;5.462;2023-03-04T09:36:37;6.00;;;2.30;;
75429;SDS011;64127;51.488;5.462;2023-03-04T09:39:09;5.13;;;2.40;;
75429;SDS011;64127;51.488;5.462;2023-03-04T09:41:43;6.80;;;2.63;;
75429;SDS011;64127;51.488;5.462;2023-03-04T09:44:22;4.77;;;2.37;;
75429;SDS011;64127;51.488;5.462;2023-03-04T09:46:59;6.27;;;2.47;;
75429;SDS011;64127;51.488;5.462;2023-03-04T09:49:37;5.40;;;2.30;;
75429;SDS011;64127;51.488;5.462;2023-03-04T09:55:27;5.60;;;2.00;;
75429;SDS011;64127;51.488;5.462;2023-03-04T10:01:33;4.83;;;1.93;;
75429;SDS011;64127;51.488;5.462;2023-03-04T10:04:13;5.23;;;2.30;;
75429;SDS011;64127;51.488;5.462;2023-03-04T10:07:19;4.03;;;2.03;;
75429;SDS011;64127;51.488;5.462;2023-03-04T10:10:25;6.00;;;2.40;;
75429;SDS011;64127;51.488;5.462;2023-03-04T10:13:07;3.30;;;2.07;;
75429;SDS011;64127;51.488;5.462;2023-03-04T10:15:48;4.13;;;1.97;;
75429;SDS011;64127;51.488;5.462;2023-03-04T10:18:23;3.93;;;2.00;;
75429;SDS011;64127;51.488;5.462;2023-03-04T10:23:50;3.13;;;1.90;;
75429;SDS011;64127;51.488;5.462;2023-03-04T10:26:24;2.73;;;2.00;;
75429;SDS011;64127;51.488;5.462;2023-03-04T10:29:03;4.23;;;1.77;;
75429;SDS011;64127;51.488;5.462;2023-03-04T10:31:37;3.17;;;1.40;;
75429;SDS011;64127;51.488;5.462;2023-03-04T10:34:12;5.60;;;1.83;;
75429;SDS011;64127;51.488;5.462;2023-03-04T10:36:53;4.07;;;1.80;;
75429;SDS011;64127;51.488;5.462;2023-03-04T10:39:39;6.13;;;2.23;;
75429;SDS011;64127;51.488;5.462;2023-03-04T10:44:56;2.10;;;1.40;;
75429;SDS011;64127;51.488;5.462;2023-03-04T10:47:31;2.40;;;1.60;;
75429;SDS011;64127;51.488;5.462;2023-03-04T10:50:04;2.90;;;1.90;;
75429;SDS011;64127;51.488;5.462;2023-03-04T10:52:38;6.83;;;1.83;;
75429;SDS011;64127;51.488;5.462;2023-03-04T10:58:15;3.80;;;1.80;;
75429;SDS011;64127;51.488;5.462;2023-03-04T11:00:59;4.20;;;1.97;;
75429;SDS011;64127;51.488;5.462;2023-03-04T11:03:36;2.60;;;1.90;;
75429;SDS011;64127;51.488;5.462;2023-03-04T11:06:16;3.67;;;2.03;;
75429;SDS011;64127;51.488;5.462;2023-03-04T11:08:56;4.33;;;1.80;;
75429;SDS011;64127;51.488;5.462;2023-03-04T11:11:30;4.50;;;1.77;;
75429;SDS011;64127;51.488;5.462;2023-03-04T11:14:16;6.23;;;2.00;;
75429;SDS011;64127;51.488;5.462;2023-03-04T11:17:00;3.23;;;1.73;;
75429;SDS011;64127;51.488;5.462;2023-03-04T11:19:57;3.03;;;1.70;;
75429;SDS011;64127;51.488;5.462;2023-03-04T11:22:41;5.20;;;1.93;;
75429;SDS011;64127;51.488;5.462;2023-03-04T11:25:25;2.47;;;1.90;;
75429;SDS011;64127;51.488;5.462;2023-03-04T11:28:05;2.27;;;1.57;;
75429;SDS011;64127;51.488;5.462;2023-03-04T11:30:46;6.47;;;2.17;;
75429;SDS011;64127;51.488;5.462;2023-03-04T11:36:32;3.40;;;2.00;;
75429;SDS011;64127;51.488;5.462;2023-03-04T11:45:44;6.67;;;2.20;;
75429;SDS011;64127;51.488;5.462;2023-03-04T11:48:48;2.90;;;1.83;;
75429;SDS011;64127;51.488;5.462;2023-03-04T11:54:23;3.40;;;2.40;;
75429;SDS011;64127;51.488;5.462;2023-03-04T12:06:01;2.40;;;2.20;;
75429;SDS011;64127;51.488;5.462;2023-03-04T12:09:02;2.67;;;2.00;;
75429;SDS011;64127;51.488;5.462;2023-03-04T12:12:25;3.37;;;2.30;;
75429;SDS011;64127;51.488;5.462;2023-03-04T12:15:27;2.00;;;1.80;;
75429;SDS011;64127;51.488;5.462;2023-03-04T12:22:17;2.17;;;2.00;;
75429;SDS011;64127;51.488;5.462;2023-03-04T12:34:41;2.20;;;2.00;;
75429;SDS011;64127;51.488;5.462;2023-03-04T12:43:31;3.00;;;1.93;;
75429;SDS011;64127;51.488;5.462;2023-03-04T12:46:24;2.10;;;1.90;;
75429;SDS011;64127;51.488;5.462;2023-03-04T12:52:22;2.57;;;1.77;;
75429;SDS011;64127;51.488;5.462;2023-03-04T12:55:02;3.33;;;2.37;;
75429;SDS011;64127;51.488;5.462;2023-03-04T12:57:43;2.30;;;2.00;;
75429;SDS011;64127;51.488;5.462;2023-03-04T13:06:30;2.63;;;2.00;;
75429;SDS011;64127;51.488;5.462;2023-03-04T13:09:11;3.87;;;2.50;;
75429;SDS011;64127;51.488;5.462;2023-03-04T13:17:43;3.35;;;2.22;;
75429;SDS011;64127;51.488;5.462;2023-03-04T13:20:24;2.20;;;2.00;;
75429;SDS011;64127;51.488;5.462;2023-03-04T13:28:31;3.37;;;2.40;;
75429;SDS011;64127;51.488;5.462;2023-03-04T13:31:11;5.67;;;2.80;;
75429;SDS011;64127;51.488;5.462;2023-03-04T13:33:50;2.97;;;2.57;;
75429;SDS011;64127;51.488;5.462;2023-03-04T13:41:46;4.83;;;2.83;;
75429;SDS011;64127;51.488;5.462;2023-03-04T13:47:16;2.90;;;2.70;;
75429;SDS011;64127;51.488;5.462;2023-03-04T13:52:58;2.93;;;2.57;;
75429;SDS011;64127;51.488;5.462;2023-03-04T13:56:27;2.70;;;2.50;;
75429;SDS011;64127;51.488;5.462;2023-03-04T13:59:00;3.80;;;2.70;;
75429;SDS011;64127;51.488;5.462;2023-03-04T14:12:43;3.00;;;1.90;;
75429;SDS011;64127;51.488;5.462;2023-03-04T14:15:30;3.00;;;1.80;;
75429;SDS011;64127;51.488;5.462;2023-03-04T14:18:05;2.00;;;1.90;;
75429;SDS011;64127;51.488;5.462;2023-03-04T14:20:38;3.63;;;2.30;;
75429;SDS011;64127;51.488;5.462;2023-03-04T14:26:06;2.50;;;2.00;;
75429;SDS011;64127;51.488;5.462;2023-03-04T14:28:49;2.97;;;1.90;;
75429;SDS011;64127;51.488;5.462;2023-03-04T14:31:27;2.77;;;1.80;;
75429;SDS011;64127;51.488;5.462;2023-03-04T14:34:04;3.40;;;1.80;;
75429;SDS011;64127;51.488;5.462;2023-03-04T14:36:37;2.70;;;1.90;;
75429;SDS011;64127;51.488;5.462;2023-03-04T14:39:17;3.93;;;1.90;;
75429;SDS011;64127;51.488;5.462;2023-03-04T14:41:50;3.07;;;2.13;;
75429;SDS011;64127;51.488;5.462;2023-03-04T14:50:15;2.53;;;2.00;;
75429;SDS011;64127;51.488;5.462;2023-03-04T14:52:50;2.40;;;2.00;;
75429;SDS011;64127;51.488;5.462;2023-03-04T14:55:39;2.40;;;1.70;;
75429;SDS011;64127;51.488;5.462;2023-03-04T14:58:32;3.43;;;1.77;;
75429;SDS011;64127;51.488;5.462;2023-03-04T15:04:08;3.27;;;1.63;;
75429;SDS011;64127;51.488;5.462;2023-03-04T15:06:47;4.03;;;1.80;;
75429;SDS011;64127;51.488;5.462;2023-03-04T15:09:24;4.53;;;1.70;;
75429;SDS011;64127;51.488;5.462;2023-03-04T15:12:02;2.33;;;1.57;;
75429;SDS011;64127;51.488;5.462;2023-03-04T15:17:37;2.90;;;1.50;;
75429;SDS011;64127;51.488;5.462;2023-03-04T15:20:50;3.17;;;1.60;;
75429;SDS011;64127;51.488;5.462;2023-03-04T15:23:11;4.93;;;1.83;;
75429;SDS011;64127;51.488;5.462;2023-03-04T15:25:45;6.60;;;2.53;;
75429;SDS011;64127;51.488;5.462;2023-03-04T15:28:20;5.33;;;2.47;;
75429;SDS011;64127;51.488;5.462;2023-03-04T15:30:54;5.73;;;2.10;;
75429;SDS011;64127;51.488;5.462;2023-03-04T15:33:27;6.10;;;2.53;;
75429;SDS011;64127;51.488;5.462;2023-03-04T15:35:59;9.07;;;2.67;;
75429;SDS011;64127;51.488;5.462;2023-03-04T15:38:33;8.70;;;2.63;;
75429;SDS011;64127;51.488;5.462;2023-03-04T15:41:07;8.00;;;2.50;;
75429;SDS011;64127;51.488;5.462;2023-03-04T15:43:42;6.77;;;2.47;;
75429;SDS011;64127;51.488;5.462;2023-03-04T15:46:14;9.97;;;2.63;;
75429;SDS011;64127;51.488;5.462;2023-03-04T15:48:48;11.10;;;2.90;;
75429;SDS011;64127;51.488;5.462;2023-03-04T15:51:20;7.53;;;2.90;;
75429;SDS011;64127;51.488;5.462;2023-03-04T15:53:56;7.53;;;2.77;;
75429;SDS011;64127;51.488;5.462;2023-03-04T15:56:31;7.03;;;2.70;;
75429;SDS011;64127;51.488;5.462;2023-03-04T15:59:05;9.50;;;2.80;;
75429;SDS011;64127;51.488;5.462;2023-03-04T16:01:43;9.80;;;2.60;;
75429;SDS011;64127;51.488;5.462;2023-03-04T16:04:16;10.13;;;2.87;;
75429;SDS011;64127;51.488;5.462;2023-03-04T16:06:49;8.13;;;2.90;;
75429;SDS011;64127;51.488;5.462;2023-03-04T16:09:21;8.73;;;2.90;;
75429;SDS011;64127;51.488;5.462;2023-03-04T16:11:53;10.23;;;3.13;;
75429;SDS011;64127;51.488;5.462;2023-03-04T16:14:31;10.40;;;3.10;;
75429;SDS011;64127;51.488;5.462;2023-03-04T16:17:03;9.03;;;2.60;;
75429;SDS011;64127;51.488;5.462;2023-03-04T16:19:36;11.17;;;3.10;;
75429;SDS011;64127;51.488;5.462;2023-03-04T16:22:19;7.80;;;2.80;;
75429;SDS011;64127;51.488;5.462;2023-03-04T16:24:58;7.53;;;2.70;;
75429;SDS011;64127;51.488;5.462;2023-03-04T16:27:30;9.37;;;3.07;;
75429;SDS011;64127;51.488;5.462;2023-03-04T16:30:03;8.47;;;2.70;;
75429;SDS011;64127;51.488;5.462;2023-03-04T16:32:37;9.27;;;2.87;;
75429;SDS011;64127;51.488;5.462;2023-03-04T16:35:09;7.50;;;2.70;;
75429;SDS011;64127;51.488;5.462;2023-03-04T16:37:46;8.93;;;2.80;;
75429;SDS011;64127;51.488;5.462;2023-03-04T16:40:19;7.07;;;2.30;;
75429;SDS011;64127;51.488;5.462;2023-03-04T16:42:57;9.17;;;2.90;;
75429;SDS011;64127;51.488;5.462;2023-03-04T16:45:29;6.60;;;2.30;;
75429;SDS011;64127;51.488;5.462;2023-03-04T16:48:01;9.53;;;2.70;;
75429;SDS011;64127;51.488;5.462;2023-03-04T16:50:33;8.70;;;2.43;;
75429;SDS011;64127;51.488;5.462;2023-03-04T16:53:16;5.67;;;2.00;;
75429;SDS011;64127;51.488;5.462;2023-03-04T16:56:04;6.70;;;2.30;;
75429;SDS011;64127;51.488;5.462;2023-03-04T16:58:43;6.00;;;2.13;;
75429;SDS011;64127;51.488;5.462;2023-03-04T17:01:17;6.07;;;2.53;;
75429;SDS011;64127;51.488;5.462;2023-03-04T17:03:56;6.10;;;1.97;;
75429;SDS011;64127;51.488;5.462;2023-03-04T17:06:28;8.03;;;2.53;;
75429;SDS011;64127;51.488;5.462;2023-03-04T17:09:00;6.90;;;2.60;;
75429;SDS011;64127;51.488;5.462;2023-03-04T17:11:32;5.30;;;2.33;;
75429;SDS011;64127;51.488;5.462;2023-03-04T17:14:04;5.37;;;2.23;;
75429;SDS011;64127;51.488;5.462;2023-03-04T17:16:36;9.63;;;2.60;;
75429;SDS011;64127;51.488;5.462;2023-03-04T17:19:08;8.33;;;2.37;;
75429;SDS011;64127;51.488;5.462;2023-03-04T17:21:40;7.87;;;2.93;;
75429;SDS011;64127;51.488;5.462;2023-03-04T17:24:13;7.17;;;2.40;;
75429;SDS011;64127;51.488;5.462;2023-03-04T17:26:45;9.90;;;2.73;;
75429;SDS011;64127;51.488;5.462;2023-03-04T17:29:17;9.65;;;2.80;;
75429;SDS011;64127;51.488;5.462;2023-03-04T17:31:49;5.00;;;2.63;;
75429;SDS011;64127;51.488;5.462;2023-03-04T17:34:21;8.77;;;2.80;;